sensor_id;sensor_type;location;lat;lon;timestamp;P1;durP1;ratioP1;P2;durP2;ratioP2
74650;SDS011;63169;46.042;14.592;2023-07-16T00:00:32;5.72;;;3.35;;
74650;SDS011;63169;46.042;14.592;2023-07-16T00:02:58;5.20;;;3.30;;
74650;SDS011;63169;46.042;14.592;2023-07-16T00:07:49;5.27;;;3.63;;
74650;SDS011;63169;46.042;14.592;2023-07-16T00:10:14;5.90;;;3.45;;
74650;SDS011;63169;46.042;14.592;2023-07-16T00:15:05;6.65;;;3.85;;
74650;SDS011;63169;46.042;14.592;2023-07-16T00:17:31;5.40;;;3.13;;
74650;SDS011;63169;46.042;14.592;2023-07-16T00:19:57;8.00;;;3.78;;
74650;SDS011;63169;46.042;14.592;2023-07-16T00:22:22;5.10;;;3.15;;
74650;SDS011;63169;46.042;14.592;2023-07-16T00:24:48;5.80;;;2.88;;
74650;SDS011;63169;46.042;14.592;2023-07-16T00:27:14;8.23;;;3.63;;
74650;SDS011;63169;46.042;14.592;2023-07-16T00:29:40;5.78;;;3.85;;
74650;SDS011;63169;46.042;14.592;2023-07-16T00:32:05;8.30;;;4.00;;
74650;SDS011;63169;46.042;14.592;2023-07-16T00:34:31;8.25;;;3.70;;
74650;SDS011;63169;46.042;14.592;2023-07-16T00:36:56;7.45;;;3.88;;
74650;SDS011;63169;46.042;14.592;2023-07-16T00:39:26;6.10;;;4.00;;
74650;SDS011;63169;46.042;14.592;2023-07-16T00:41:52;6.38;;;3.65;;
74650;SDS011;63169;46.042;14.592;2023-07-16T00:44:18;7.25;;;4.13;;
74650;SDS011;63169;46.042;14.592;2023-07-16T00:46:43;6.80;;;3.30;;
74650;SDS011;63169;46.042;14.592;2023-07-16T00:49:08;9.40;;;3.63;;
74650;SDS011;63169;46.042;14.592;2023-07-16T00:51:34;6.47;;;3.85;;
74650;SDS011;63169;46.042;14.592;2023-07-16T00:53:59;9.85;;;3.65;;
74650;SDS011;63169;46.042;14.592;2023-07-16T00:56:25;6.00;;;4.22;;
74650;SDS011;63169;46.042;14.592;2023-07-16T00:58:50;6.07;;;4.20;;
74650;SDS011;63169;46.042;14.592;2023-07-16T01:01:15;7.85;;;3.80;;
74650;SDS011;63169;46.042;14.592;2023-07-16T01:03:41;5.00;;;3.75;;
74650;SDS011;63169;46.042;14.592;2023-07-16T01:08:55;8.77;;;3.53;;
74650;SDS011;63169;46.042;14.592;2023-07-16T01:11:23;5.80;;;3.35;;
74650;SDS011;63169;46.042;14.592;2023-07-16T01:13:49;6.80;;;3.55;;
74650;SDS011;63169;46.042;14.592;2023-07-16T01:16:22;7.28;;;3.22;;
74650;SDS011;63169;46.042;14.592;2023-07-16T01:18:48;6.47;;;3.80;;
74650;SDS011;63169;46.042;14.592;2023-07-16T01:23:49;10.75;;;3.92;;
74650;SDS011;63169;46.042;14.592;2023-07-16T01:29:26;9.77;;;4.28;;
74650;SDS011;63169;46.042;14.592;2023-07-16T01:31:54;8.18;;;4.15;;
74650;SDS011;63169;46.042;14.592;2023-07-16T01:34:21;5.95;;;3.88;;
74650;SDS011;63169;46.042;14.592;2023-07-16T01:36:47;7.43;;;4.05;;
74650;SDS011;63169;46.042;14.592;2023-07-16T01:39:13;9.40;;;4.43;;
74650;SDS011;63169;46.042;14.592;2023-07-16T01:41:39;6.07;;;3.17;;
74650;SDS011;63169;46.042;14.592;2023-07-16T01:44:04;6.32;;;3.67;;
74650;SDS011;63169;46.042;14.592;2023-07-16T01:48:55;7.87;;;3.67;;
74650;SDS011;63169;46.042;14.592;2023-07-16T01:51:20;8.52;;;3.78;;
74650;SDS011;63169;46.042;14.592;2023-07-16T01:53:45;6.95;;;3.58;;
74650;SDS011;63169;46.042;14.592;2023-07-16T01:56:11;6.90;;;4.40;;
74650;SDS011;63169;46.042;14.592;2023-07-16T01:58:37;6.82;;;4.03;;
74650;SDS011;63169;46.042;14.592;2023-07-16T02:03:27;6.93;;;4.07;;
74650;SDS011;63169;46.042;14.592;2023-07-16T02:05:53;8.65;;;3.47;;
74650;SDS011;63169;46.042;14.592;2023-07-16T02:08:18;8.00;;;5.07;;
74650;SDS011;63169;46.042;14.592;2023-07-16T02:10:44;5.60;;;3.60;;
74650;SDS011;63169;46.042;14.592;2023-07-16T02:13:09;8.13;;;3.75;;
74650;SDS011;63169;46.042;14.592;2023-07-16T02:15:34;10.70;;;5.30;;
74650;SDS011;63169;46.042;14.592;2023-07-16T02:18:00;9.85;;;3.40;;
74650;SDS011;63169;46.042;14.592;2023-07-16T02:20:25;5.88;;;3.83;;
74650;SDS011;63169;46.042;14.592;2023-07-16T02:22:50;10.18;;;3.97;;
74650;SDS011;63169;46.042;14.592;2023-07-16T02:25:16;7.15;;;3.88;;
74650;SDS011;63169;46.042;14.592;2023-07-16T02:27:41;6.68;;;4.38;;
74650;SDS011;63169;46.042;14.592;2023-07-16T02:30:07;6.03;;;3.92;;
74650;SDS011;63169;46.042;14.592;2023-07-16T02:32:33;8.95;;;3.97;;
74650;SDS011;63169;46.042;14.592;2023-07-16T02:34:59;8.05;;;4.35;;
74650;SDS011;63169;46.042;14.592;2023-07-16T02:37:25;9.25;;;4.18;;
74650;SDS011;63169;46.042;14.592;2023-07-16T02:42:16;7.63;;;4.53;;
74650;SDS011;63169;46.042;14.592;2023-07-16T02:44:41;7.90;;;5.00;;
74650;SDS011;63169;46.042;14.592;2023-07-16T02:47:09;7.43;;;5.70;;
74650;SDS011;63169;46.042;14.592;2023-07-16T02:52:00;8.30;;;5.17;;
74650;SDS011;63169;46.042;14.592;2023-07-16T02:54:26;9.07;;;6.30;;
74650;SDS011;63169;46.042;14.592;2023-07-16T02:56:52;6.85;;;3.88;;
74650;SDS011;63169;46.042;14.592;2023-07-16T02:59:17;8.60;;;5.30;;
74650;SDS011;63169;46.042;14.592;2023-07-16T03:04:08;7.57;;;4.47;;
74650;SDS011;63169;46.042;14.592;2023-07-16T03:08:58;8.20;;;4.03;;
74650;SDS011;63169;46.042;14.592;2023-07-16T03:11:24;7.60;;;4.78;;
74650;SDS011;63169;46.042;14.592;2023-07-16T03:13:49;7.10;;;4.13;;
74650;SDS011;63169;46.042;14.592;2023-07-16T03:16:14;9.68;;;4.43;;
74650;SDS011;63169;46.042;14.592;2023-07-16T03:18:40;11.35;;;4.32;;
74650;SDS011;63169;46.042;14.592;2023-07-16T03:21:05;6.32;;;4.00;;
74650;SDS011;63169;46.042;14.592;2023-07-16T03:23:33;8.60;;;6.57;;
74650;SDS011;63169;46.042;14.592;2023-07-16T03:28:24;8.07;;;4.60;;
74650;SDS011;63169;46.042;14.592;2023-07-16T03:30:49;7.88;;;4.75;;
74650;SDS011;63169;46.042;14.592;2023-07-16T03:33:15;8.52;;;4.05;;
74650;SDS011;63169;46.042;14.592;2023-07-16T03:35:44;8.55;;;4.75;;
74650;SDS011;63169;46.042;14.592;2023-07-16T03:38:11;7.40;;;3.80;;
74650;SDS011;63169;46.042;14.592;2023-07-16T03:43:02;9.27;;;4.95;;
74650;SDS011;63169;46.042;14.592;2023-07-16T03:45:27;10.88;;;5.45;;
74650;SDS011;63169;46.042;14.592;2023-07-16T03:47:52;9.98;;;6.38;;
74650;SDS011;63169;46.042;14.592;2023-07-16T03:50:18;8.90;;;4.75;;
74650;SDS011;63169;46.042;14.592;2023-07-16T03:52:43;6.50;;;5.03;;
74650;SDS011;63169;46.042;14.592;2023-07-16T03:57:34;9.23;;;6.77;;
74650;SDS011;63169;46.042;14.592;2023-07-16T04:00:00;9.43;;;5.45;;
74650;SDS011;63169;46.042;14.592;2023-07-16T04:02:26;9.38;;;5.88;;
74650;SDS011;63169;46.042;14.592;2023-07-16T04:04:51;10.98;;;5.93;;
74650;SDS011;63169;46.042;14.592;2023-07-16T04:07:17;9.90;;;6.07;;
74650;SDS011;63169;46.042;14.592;2023-07-16T04:09:42;9.13;;;5.28;;
74650;SDS011;63169;46.042;14.592;2023-07-16T04:12:08;8.85;;;5.78;;
74650;SDS011;63169;46.042;14.592;2023-07-16T04:14:33;11.73;;;5.55;;
74650;SDS011;63169;46.042;14.592;2023-07-16T04:16:58;8.90;;;5.63;;
74650;SDS011;63169;46.042;14.592;2023-07-16T04:19:24;8.82;;;5.03;;
74650;SDS011;63169;46.042;14.592;2023-07-16T04:21:49;11.20;;;5.45;;
74650;SDS011;63169;46.042;14.592;2023-07-16T04:24:15;9.77;;;5.72;;
74650;SDS011;63169;46.042;14.592;2023-07-16T04:26:40;8.10;;;4.80;;
74650;SDS011;63169;46.042;14.592;2023-07-16T04:29:05;11.20;;;5.65;;
74650;SDS011;63169;46.042;14.592;2023-07-16T04:31:31;10.85;;;5.70;;
74650;SDS011;63169;46.042;14.592;2023-07-16T04:33:56;9.23;;;4.78;;
74650;SDS011;63169;46.042;14.592;2023-07-16T04:36:21;16.73;;;6.72;;
74650;SDS011;63169;46.042;14.592;2023-07-16T04:38:47;11.13;;;7.05;;
74650;SDS011;63169;46.042;14.592;2023-07-16T04:41:12;9.98;;;6.13;;
74650;SDS011;63169;46.042;14.592;2023-07-16T04:43:38;11.98;;;6.95;;
74650;SDS011;63169;46.042;14.592;2023-07-16T04:46:03;9.15;;;4.97;;
74650;SDS011;63169;46.042;14.592;2023-07-16T04:48:29;9.15;;;5.53;;
74650;SDS011;63169;46.042;14.592;2023-07-16T04:50:54;10.65;;;5.70;;
74650;SDS011;63169;46.042;14.592;2023-07-16T04:53:19;10.70;;;6.40;;
74650;SDS011;63169;46.042;14.592;2023-07-16T04:55:46;13.50;;;6.05;;
74650;SDS011;63169;46.042;14.592;2023-07-16T05:00:36;9.88;;;5.78;;
74650;SDS011;63169;46.042;14.592;2023-07-16T05:05:27;9.40;;;5.67;;
74650;SDS011;63169;46.042;14.592;2023-07-16T05:07:52;9.40;;;5.30;;
74650;SDS011;63169;46.042;14.592;2023-07-16T05:12:43;10.93;;;6.20;;
74650;SDS011;63169;46.042;14.592;2023-07-16T05:17:34;8.40;;;5.35;;
74650;SDS011;63169;46.042;14.592;2023-07-16T05:19:59;13.05;;;4.80;;
74650;SDS011;63169;46.042;14.592;2023-07-16T05:22:24;8.48;;;5.18;;
74650;SDS011;63169;46.042;14.592;2023-07-16T05:24:50;9.05;;;4.85;;
74650;SDS011;63169;46.042;14.592;2023-07-16T05:29:41;8.90;;;5.22;;
74650;SDS011;63169;46.042;14.592;2023-07-16T05:34:31;8.35;;;5.82;;
74650;SDS011;63169;46.042;14.592;2023-07-16T05:39:23;11.20;;;5.90;;
74650;SDS011;63169;46.042;14.592;2023-07-16T05:44:13;10.65;;;6.25;;
74650;SDS011;63169;46.042;14.592;2023-07-16T05:49:04;9.52;;;5.28;;
74650;SDS011;63169;46.042;14.592;2023-07-16T05:53:55;7.90;;;4.60;;
74650;SDS011;63169;46.042;14.592;2023-07-16T05:58:45;8.23;;;4.90;;
74650;SDS011;63169;46.042;14.592;2023-07-16T06:03:36;12.97;;;8.70;;
74650;SDS011;63169;46.042;14.592;2023-07-16T06:08:26;7.83;;;5.43;;
74650;SDS011;63169;46.042;14.592;2023-07-16T06:10:51;8.93;;;6.65;;
74650;SDS011;63169;46.042;14.592;2023-07-16T06:15:42;7.37;;;5.13;;
74650;SDS011;63169;46.042;14.592;2023-07-16T06:20:33;10.15;;;5.70;;
74650;SDS011;63169;46.042;14.592;2023-07-16T06:25:24;10.40;;;6.50;;
74650;SDS011;63169;46.042;14.592;2023-07-16T06:27:49;9.95;;;6.25;;
74650;SDS011;63169;46.042;14.592;2023-07-16T06:30:14;16.25;;;10.52;;
74650;SDS011;63169;46.042;14.592;2023-07-16T06:32:40;11.40;;;5.45;;
74650;SDS011;63169;46.042;14.592;2023-07-16T06:35:05;9.00;;;5.63;;
74650;SDS011;63169;46.042;14.592;2023-07-16T06:37:31;8.00;;;5.13;;
74650;SDS011;63169;46.042;14.592;2023-07-16T06:39:56;8.52;;;6.00;;
74650;SDS011;63169;46.042;14.592;2023-07-16T06:42:22;11.10;;;5.88;;
74650;SDS011;63169;46.042;14.592;2023-07-16T06:44:47;7.47;;;4.70;;
74650;SDS011;63169;46.042;14.592;2023-07-16T06:47:12;13.85;;;5.90;;
74650;SDS011;63169;46.042;14.592;2023-07-16T06:49:38;11.77;;;5.53;;
74650;SDS011;63169;46.042;14.592;2023-07-16T06:52:03;8.75;;;4.90;;
74650;SDS011;63169;46.042;14.592;2023-07-16T06:54:29;9.60;;;5.63;;
74650;SDS011;63169;46.042;14.592;2023-07-16T06:56:54;8.52;;;4.30;;
74650;SDS011;63169;46.042;14.592;2023-07-16T06:59:19;8.50;;;4.97;;
74650;SDS011;63169;46.042;14.592;2023-07-16T07:01:45;7.68;;;5.53;;
74650;SDS011;63169;46.042;14.592;2023-07-16T07:04:10;7.68;;;4.47;;
74650;SDS011;63169;46.042;14.592;2023-07-16T07:06:36;6.43;;;4.25;;
74650;SDS011;63169;46.042;14.592;2023-07-16T07:09:01;7.70;;;4.72;;
74650;SDS011;63169;46.042;14.592;2023-07-16T07:11:26;9.18;;;4.38;;
74650;SDS011;63169;46.042;14.592;2023-07-16T07:13:52;7.70;;;3.92;;
74650;SDS011;63169;46.042;14.592;2023-07-16T07:16:17;7.63;;;4.90;;
74650;SDS011;63169;46.042;14.592;2023-07-16T07:18:43;9.10;;;4.82;;
74650;SDS011;63169;46.042;14.592;2023-07-16T07:21:08;9.30;;;4.43;;
74650;SDS011;63169;46.042;14.592;2023-07-16T07:23:34;7.35;;;4.47;;
74650;SDS011;63169;46.042;14.592;2023-07-16T07:25:59;9.45;;;4.70;;
74650;SDS011;63169;46.042;14.592;2023-07-16T07:28:25;7.03;;;4.72;;
74650;SDS011;63169;46.042;14.592;2023-07-16T07:30:50;9.20;;;4.00;;
74650;SDS011;63169;46.042;14.592;2023-07-16T07:33:16;7.45;;;4.95;;
74650;SDS011;63169;46.042;14.592;2023-07-16T07:35:41;6.97;;;4.95;;
74650;SDS011;63169;46.042;14.592;2023-07-16T07:38:06;8.05;;;5.07;;
74650;SDS011;63169;46.042;14.592;2023-07-16T07:40:32;8.70;;;4.43;;
74650;SDS011;63169;46.042;14.592;2023-07-16T07:42:57;7.13;;;4.35;;
74650;SDS011;63169;46.042;14.592;2023-07-16T07:45:23;7.00;;;5.20;;
74650;SDS011;63169;46.042;14.592;2023-07-16T07:47:49;5.72;;;4.78;;
74650;SDS011;63169;46.042;14.592;2023-07-16T07:50:14;6.95;;;3.95;;
74650;SDS011;63169;46.042;14.592;2023-07-16T07:52:40;6.88;;;3.67;;
74650;SDS011;63169;46.042;14.592;2023-07-16T07:55:08;7.50;;;4.80;;
74650;SDS011;63169;46.042;14.592;2023-07-16T07:57:34;7.22;;;4.93;;
74650;SDS011;63169;46.042;14.592;2023-07-16T08:00:00;8.65;;;4.68;;
74650;SDS011;63169;46.042;14.592;2023-07-16T08:02:25;7.45;;;4.55;;
74650;SDS011;63169;46.042;14.592;2023-07-16T08:04:54;8.80;;;4.78;;
74650;SDS011;63169;46.042;14.592;2023-07-16T08:07:20;7.78;;;5.57;;
74650;SDS011;63169;46.042;14.592;2023-07-16T08:09:46;6.82;;;4.18;;
74650;SDS011;63169;46.042;14.592;2023-07-16T08:12:12;7.93;;;4.75;;
74650;SDS011;63169;46.042;14.592;2023-07-16T08:14:37;9.48;;;4.25;;
74650;SDS011;63169;46.042;14.592;2023-07-16T08:17:03;7.35;;;5.13;;
74650;SDS011;63169;46.042;14.592;2023-07-16T08:19:28;7.13;;;4.22;;
74650;SDS011;63169;46.042;14.592;2023-07-16T08:21:54;6.72;;;4.25;;
74650;SDS011;63169;46.042;14.592;2023-07-16T08:24:19;5.57;;;4.70;;
74650;SDS011;63169;46.042;14.592;2023-07-16T08:26:44;7.40;;;4.82;;
74650;SDS011;63169;46.042;14.592;2023-07-16T08:29:10;9.13;;;5.00;;
74650;SDS011;63169;46.042;14.592;2023-07-16T08:31:35;11.38;;;5.32;;
74650;SDS011;63169;46.042;14.592;2023-07-16T08:34:01;14.02;;;5.15;;
74650;SDS011;63169;46.042;14.592;2023-07-16T08:36:26;9.32;;;4.25;;
74650;SDS011;63169;46.042;14.592;2023-07-16T08:38:52;11.43;;;4.78;;
74650;SDS011;63169;46.042;14.592;2023-07-16T08:41:17;6.43;;;4.85;;
74650;SDS011;63169;46.042;14.592;2023-07-16T08:43:44;7.43;;;4.47;;
74650;SDS011;63169;46.042;14.592;2023-07-16T08:46:11;6.53;;;5.45;;
74650;SDS011;63169;46.042;14.592;2023-07-16T08:48:37;7.63;;;4.68;;
74650;SDS011;63169;46.042;14.592;2023-07-16T08:51:02;7.18;;;5.20;;
74650;SDS011;63169;46.042;14.592;2023-07-16T08:53:29;10.77;;;7.47;;
74650;SDS011;63169;46.042;14.592;2023-07-16T08:55:55;8.48;;;4.80;;
74650;SDS011;63169;46.042;14.592;2023-07-16T08:58:21;7.50;;;4.65;;
74650;SDS011;63169;46.042;14.592;2023-07-16T09:00:48;8.68;;;4.85;;
74650;SDS011;63169;46.042;14.592;2023-07-16T09:03:15;7.75;;;4.63;;
74650;SDS011;63169;46.042;14.592;2023-07-16T09:05:46;9.07;;;5.22;;
74650;SDS011;63169;46.042;14.592;2023-07-16T09:08:12;11.93;;;4.85;;
74650;SDS011;63169;46.042;14.592;2023-07-16T09:10:39;7.95;;;5.28;;
74650;SDS011;63169;46.042;14.592;2023-07-16T09:13:05;9.40;;;4.80;;
74650;SDS011;63169;46.042;14.592;2023-07-16T09:15:31;9.02;;;5.15;;
74650;SDS011;63169;46.042;14.592;2023-07-16T09:17:56;9.15;;;4.72;;
74650;SDS011;63169;46.042;14.592;2023-07-16T09:20:22;9.93;;;4.70;;
74650;SDS011;63169;46.042;14.592;2023-07-16T09:22:53;8.93;;;4.65;;
74650;SDS011;63169;46.042;14.592;2023-07-16T09:25:24;7.75;;;4.47;;
74650;SDS011;63169;46.042;14.592;2023-07-16T09:27:57;9.00;;;4.55;;
74650;SDS011;63169;46.042;14.592;2023-07-16T09:30:23;35.92;;;7.70;;
74650;SDS011;63169;46.042;14.592;2023-07-16T09:32:49;16.38;;;5.85;;
74650;SDS011;63169;46.042;14.592;2023-07-16T09:35:15;6.70;;;4.10;;
74650;SDS011;63169;46.042;14.592;2023-07-16T09:37:41;9.73;;;5.18;;
74650;SDS011;63169;46.042;14.592;2023-07-16T09:40:08;8.95;;;5.63;;
74650;SDS011;63169;46.042;14.592;2023-07-16T09:42:38;5.95;;;4.40;;
74650;SDS011;63169;46.042;14.592;2023-07-16T09:45:25;12.20;;;4.88;;
74650;SDS011;63169;46.042;14.592;2023-07-16T09:47:50;6.57;;;4.63;;
74650;SDS011;63169;46.042;14.592;2023-07-16T09:50:15;7.18;;;4.32;;
74650;SDS011;63169;46.042;14.592;2023-07-16T09:52:41;8.98;;;4.85;;
74650;SDS011;63169;46.042;14.592;2023-07-16T09:55:08;6.88;;;4.30;;
74650;SDS011;63169;46.042;14.592;2023-07-16T09:57:35;7.05;;;3.92;;
74650;SDS011;63169;46.042;14.592;2023-07-16T10:00:03;15.63;;;4.97;;
74650;SDS011;63169;46.042;14.592;2023-07-16T10:02:34;8.75;;;4.78;;
74650;SDS011;63169;46.042;14.592;2023-07-16T10:05:11;5.30;;;3.33;;
74650;SDS011;63169;46.042;14.592;2023-07-16T10:07:37;12.18;;;4.45;;
74650;SDS011;63169;46.042;14.592;2023-07-16T10:10:02;8.30;;;4.88;;
74650;SDS011;63169;46.042;14.592;2023-07-16T10:12:33;7.22;;;3.53;;
74650;SDS011;63169;46.042;14.592;2023-07-16T10:14:59;6.68;;;4.82;;
74650;SDS011;63169;46.042;14.592;2023-07-16T10:17:29;4.68;;;3.97;;
74650;SDS011;63169;46.042;14.592;2023-07-16T10:22:30;8.13;;;4.53;;
74650;SDS011;63169;46.042;14.592;2023-07-16T10:24:59;7.68;;;4.85;;
74650;SDS011;63169;46.042;14.592;2023-07-16T10:27:33;7.07;;;4.20;;
74650;SDS011;63169;46.042;14.592;2023-07-16T10:29:59;9.10;;;4.03;;
74650;SDS011;63169;46.042;14.592;2023-07-16T10:32:27;6.05;;;4.43;;
74650;SDS011;63169;46.042;14.592;2023-07-16T10:34:53;6.93;;;4.03;;
74650;SDS011;63169;46.042;14.592;2023-07-16T10:37:19;7.28;;;3.88;;
74650;SDS011;63169;46.042;14.592;2023-07-16T10:39:48;6.25;;;3.63;;
74650;SDS011;63169;46.042;14.592;2023-07-16T10:42:17;5.38;;;4.13;;
74650;SDS011;63169;46.042;14.592;2023-07-16T10:44:44;9.82;;;4.32;;
74650;SDS011;63169;46.042;14.592;2023-07-16T10:47:10;7.75;;;4.07;;
74650;SDS011;63169;46.042;14.592;2023-07-16T10:49:52;7.43;;;4.70;;
74650;SDS011;63169;46.042;14.592;2023-07-16T10:52:19;8.48;;;4.40;;
74650;SDS011;63169;46.042;14.592;2023-07-16T10:54:45;7.45;;;4.10;;
74650;SDS011;63169;46.042;14.592;2023-07-16T10:57:11;5.72;;;4.45;;
74650;SDS011;63169;46.042;14.592;2023-07-16T10:59:40;7.15;;;4.35;;
74650;SDS011;63169;46.042;14.592;2023-07-16T11:02:10;13.73;;;5.38;;
74650;SDS011;63169;46.042;14.592;2023-07-16T11:04:36;8.68;;;4.65;;
74650;SDS011;63169;46.042;14.592;2023-07-16T11:07:08;7.82;;;4.38;;
74650;SDS011;63169;46.042;14.592;2023-07-16T11:09:39;5.30;;;3.63;;
74650;SDS011;63169;46.042;14.592;2023-07-16T11:12:09;8.75;;;3.45;;
74650;SDS011;63169;46.042;14.592;2023-07-16T11:14:36;7.25;;;3.53;;
74650;SDS011;63169;46.042;14.592;2023-07-16T11:17:07;5.43;;;3.08;;
74650;SDS011;63169;46.042;14.592;2023-07-16T11:19:34;7.07;;;3.58;;
74650;SDS011;63169;46.042;14.592;2023-07-16T11:22:00;7.43;;;4.32;;
74650;SDS011;63169;46.042;14.592;2023-07-16T11:24:26;7.47;;;3.22;;
74650;SDS011;63169;46.042;14.592;2023-07-16T11:26:52;5.78;;;3.53;;
74650;SDS011;63169;46.042;14.592;2023-07-16T11:29:19;7.53;;;3.80;;
74650;SDS011;63169;46.042;14.592;2023-07-16T11:31:44;5.50;;;3.38;;
74650;SDS011;63169;46.042;14.592;2023-07-16T11:34:14;5.20;;;3.42;;
74650;SDS011;63169;46.042;14.592;2023-07-16T11:36:40;8.15;;;4.13;;
74650;SDS011;63169;46.042;14.592;2023-07-16T11:39:06;5.97;;;3.85;;
74650;SDS011;63169;46.042;14.592;2023-07-16T11:41:32;7.82;;;4.40;;
74650;SDS011;63169;46.042;14.592;2023-07-16T11:44:00;8.35;;;4.65;;
74650;SDS011;63169;46.042;14.592;2023-07-16T11:46:32;6.75;;;5.95;;
74650;SDS011;63169;46.042;14.592;2023-07-16T11:48:58;7.38;;;5.43;;
74650;SDS011;63169;46.042;14.592;2023-07-16T11:51:24;7.75;;;4.40;;
74650;SDS011;63169;46.042;14.592;2023-07-16T11:53:49;6.50;;;4.50;;
74650;SDS011;63169;46.042;14.592;2023-07-16T11:56:14;8.93;;;4.70;;
74650;SDS011;63169;46.042;14.592;2023-07-16T11:58:40;6.13;;;4.10;;
74650;SDS011;63169;46.042;14.592;2023-07-16T12:01:05;6.93;;;4.53;;
74650;SDS011;63169;46.042;14.592;2023-07-16T12:03:34;11.20;;;5.78;;
74650;SDS011;63169;46.042;14.592;2023-07-16T12:05:59;12.73;;;9.52;;
74650;SDS011;63169;46.042;14.592;2023-07-16T12:08:25;7.13;;;4.60;;
74650;SDS011;63169;46.042;14.592;2023-07-16T12:10:50;10.63;;;4.60;;
74650;SDS011;63169;46.042;14.592;2023-07-16T12:13:15;7.70;;;5.05;;
74650;SDS011;63169;46.042;14.592;2023-07-16T12:15:41;10.82;;;4.05;;
74650;SDS011;63169;46.042;14.592;2023-07-16T12:18:06;5.88;;;4.57;;
74650;SDS011;63169;46.042;14.592;2023-07-16T12:20:33;6.05;;;4.57;;
74650;SDS011;63169;46.042;14.592;2023-07-16T12:22:59;10.23;;;4.93;;
74650;SDS011;63169;46.042;14.592;2023-07-16T12:25:25;6.53;;;3.63;;
74650;SDS011;63169;46.042;14.592;2023-07-16T12:27:50;8.07;;;4.28;;
74650;SDS011;63169;46.042;14.592;2023-07-16T12:30:15;6.47;;;3.70;;
74650;SDS011;63169;46.042;14.592;2023-07-16T12:32:41;7.70;;;3.40;;
74650;SDS011;63169;46.042;14.592;2023-07-16T12:35:06;8.30;;;4.03;;
74650;SDS011;63169;46.042;14.592;2023-07-16T12:37:32;5.43;;;4.20;;
74650;SDS011;63169;46.042;14.592;2023-07-16T12:39:57;7.43;;;5.28;;
74650;SDS011;63169;46.042;14.592;2023-07-16T12:42:23;6.93;;;4.35;;
74650;SDS011;63169;46.042;14.592;2023-07-16T12:44:48;8.38;;;4.30;;
74650;SDS011;63169;46.042;14.592;2023-07-16T12:47:14;7.05;;;4.53;;
74650;SDS011;63169;46.042;14.592;2023-07-16T12:49:40;8.50;;;4.72;;
74650;SDS011;63169;46.042;14.592;2023-07-16T12:52:05;11.57;;;5.20;;
74650;SDS011;63169;46.042;14.592;2023-07-16T12:54:31;8.50;;;3.90;;
74650;SDS011;63169;46.042;14.592;2023-07-16T12:56:56;5.88;;;2.90;;
74650;SDS011;63169;46.042;14.592;2023-07-16T12:59:22;6.47;;;3.33;;
74650;SDS011;63169;46.042;14.592;2023-07-16T13:01:49;4.82;;;2.47;;
74650;SDS011;63169;46.042;14.592;2023-07-16T13:04:14;5.15;;;3.00;;
74650;SDS011;63169;46.042;14.592;2023-07-16T13:06:40;4.68;;;2.83;;
74650;SDS011;63169;46.042;14.592;2023-07-16T13:09:05;4.57;;;2.25;;
74650;SDS011;63169;46.042;14.592;2023-07-16T13:11:30;6.40;;;2.53;;
74650;SDS011;63169;46.042;14.592;2023-07-16T13:13:56;7.60;;;3.35;;
74650;SDS011;63169;46.042;14.592;2023-07-16T13:16:21;6.43;;;3.35;;
74650;SDS011;63169;46.042;14.592;2023-07-16T13:18:47;3.88;;;2.60;;
74650;SDS011;63169;46.042;14.592;2023-07-16T13:21:12;6.15;;;3.42;;
74650;SDS011;63169;46.042;14.592;2023-07-16T13:23:37;5.50;;;3.17;;
74650;SDS011;63169;46.042;14.592;2023-07-16T13:26:03;4.82;;;2.83;;
74650;SDS011;63169;46.042;14.592;2023-07-16T13:28:28;6.60;;;3.42;;
74650;SDS011;63169;46.042;14.592;2023-07-16T13:30:53;5.60;;;2.95;;
74650;SDS011;63169;46.042;14.592;2023-07-16T13:33:19;4.22;;;2.75;;
74650;SDS011;63169;46.042;14.592;2023-07-16T13:35:44;4.65;;;2.97;;
74650;SDS011;63169;46.042;14.592;2023-07-16T13:38:10;5.60;;;2.90;;
74650;SDS011;63169;46.042;14.592;2023-07-16T13:40:35;4.30;;;3.28;;
74650;SDS011;63169;46.042;14.592;2023-07-16T13:43:00;4.80;;;3.45;;
74650;SDS011;63169;46.042;14.592;2023-07-16T13:45:26;5.40;;;2.60;;
74650;SDS011;63169;46.042;14.592;2023-07-16T13:47:51;4.80;;;3.15;;
74650;SDS011;63169;46.042;14.592;2023-07-16T13:50:17;4.65;;;3.05;;
74650;SDS011;63169;46.042;14.592;2023-07-16T13:52:43;3.75;;;2.50;;
74650;SDS011;63169;46.042;14.592;2023-07-16T13:55:09;8.25;;;2.70;;
74650;SDS011;63169;46.042;14.592;2023-07-16T13:57:34;5.43;;;3.63;;
74650;SDS011;63169;46.042;14.592;2023-07-16T14:00:00;8.35;;;2.97;;
74650;SDS011;63169;46.042;14.592;2023-07-16T14:02:25;4.28;;;3.15;;
74650;SDS011;63169;46.042;14.592;2023-07-16T14:04:51;4.13;;;2.55;;
74650;SDS011;63169;46.042;14.592;2023-07-16T14:07:16;5.68;;;2.83;;
74650;SDS011;63169;46.042;14.592;2023-07-16T14:09:41;6.40;;;2.95;;
74650;SDS011;63169;46.042;14.592;2023-07-16T14:12:07;5.20;;;3.20;;
74650;SDS011;63169;46.042;14.592;2023-07-16T14:14:32;4.80;;;2.80;;
74650;SDS011;63169;46.042;14.592;2023-07-16T14:16:58;7.03;;;2.35;;
74650;SDS011;63169;46.042;14.592;2023-07-16T14:19:23;5.78;;;2.95;;
74650;SDS011;63169;46.042;14.592;2023-07-16T14:21:48;5.65;;;3.05;;
74650;SDS011;63169;46.042;14.592;2023-07-16T14:24:14;4.00;;;2.80;;
74650;SDS011;63169;46.042;14.592;2023-07-16T14:26:39;4.32;;;2.90;;
74650;SDS011;63169;46.042;14.592;2023-07-16T14:29:05;5.55;;;2.63;;
74650;SDS011;63169;46.042;14.592;2023-07-16T14:31:31;14.40;;;3.75;;
74650;SDS011;63169;46.042;14.592;2023-07-16T14:33:56;7.70;;;3.25;;
74650;SDS011;63169;46.042;14.592;2023-07-16T14:36:22;8.02;;;3.40;;
74650;SDS011;63169;46.042;14.592;2023-07-16T14:38:48;7.40;;;3.05;;
74650;SDS011;63169;46.042;14.592;2023-07-16T14:41:13;4.68;;;3.08;;
74650;SDS011;63169;46.042;14.592;2023-07-16T14:43:38;5.47;;;2.88;;
74650;SDS011;63169;46.042;14.592;2023-07-16T14:46:04;4.50;;;3.15;;
74650;SDS011;63169;46.042;14.592;2023-07-16T14:48:29;4.72;;;3.90;;
74650;SDS011;63169;46.042;14.592;2023-07-16T14:50:54;5.85;;;2.90;;
74650;SDS011;63169;46.042;14.592;2023-07-16T14:53:20;5.43;;;4.20;;
74650;SDS011;63169;46.042;14.592;2023-07-16T14:55:46;5.10;;;3.00;;
74650;SDS011;63169;46.042;14.592;2023-07-16T14:58:12;5.47;;;3.20;;
74650;SDS011;63169;46.042;14.592;2023-07-16T15:00:37;6.50;;;3.15;;
74650;SDS011;63169;46.042;14.592;2023-07-16T15:03:03;6.47;;;3.25;;
74650;SDS011;63169;46.042;14.592;2023-07-16T15:05:29;8.52;;;3.42;;
74650;SDS011;63169;46.042;14.592;2023-07-16T15:07:54;6.88;;;3.42;;
74650;SDS011;63169;46.042;14.592;2023-07-16T15:10:20;4.35;;;2.72;;
74650;SDS011;63169;46.042;14.592;2023-07-16T15:12:45;6.07;;;2.97;;
74650;SDS011;63169;46.042;14.592;2023-07-16T15:15:11;8.43;;;3.70;;
74650;SDS011;63169;46.042;14.592;2023-07-16T15:17:36;9.52;;;2.85;;
74650;SDS011;63169;46.042;14.592;2023-07-16T15:20:01;7.95;;;4.45;;
74650;SDS011;63169;46.042;14.592;2023-07-16T15:22:29;6.93;;;3.67;;
74650;SDS011;63169;46.042;14.592;2023-07-16T15:24:54;5.53;;;2.80;;
74650;SDS011;63169;46.042;14.592;2023-07-16T15:27:22;12.75;;;3.20;;
74650;SDS011;63169;46.042;14.592;2023-07-16T15:29:47;9.00;;;3.55;;
74650;SDS011;63169;46.042;14.592;2023-07-16T15:32:12;6.85;;;4.50;;
74650;SDS011;63169;46.042;14.592;2023-07-16T15:34:38;7.78;;;3.22;;
74650;SDS011;63169;46.042;14.592;2023-07-16T15:37:03;4.63;;;2.83;;
74650;SDS011;63169;46.042;14.592;2023-07-16T15:39:30;5.13;;;2.30;;
74650;SDS011;63169;46.042;14.592;2023-07-16T15:41:55;5.05;;;2.88;;